• Join FlightAware (Why Join?)
  • Login
  • US Flag 
11:17AM EST


 

Airport Tracker/Info


-or-


 

Live Flight TrackerFlight Track Log ✈ WIG1043 ✈ 14-Apr-2014 ✈ KBGR - KMHT

Flight Track Log - Related Links

Times and Time Zones

All times are in EDT time to prevent confusion due to time zone crossing. See the WIG1043 flight status page for this flight to view local times or setup timezone preferences in your user account.

Time Position Orientation Groundspeed Altitude Reporting Facility
EDT Latitude Longitude Course Direction KTS MPH feet Rate Location/Type
07:39PM 44.7319 -68.7822 226° Southwest 119 137 4,100  Level Boston Center
07:40PM 44.7094 -68.8153 226° Southwest 118 136 5,200 1,020 Climbing Boston Center
07:41PM 44.6872 -68.8481 226° Southwest 117 135 6,200 960 Climbing Boston Center
07:42PM 44.6814 -69.0019 215° Southwest  Level FlightAware Approximate
07:42PM 44.6647 -68.8831 228° Southwest 117 135 7,200  Level Boston Center
07:43PM 44.6547 -69.0346 227° Southwest  Level FlightAware Approximate
07:43PM 44.6425 -68.9200 230° Southwest 118 136 7,900  Level Boston Center
07:44PM 44.6304 -69.0710 226° Southwest  Level FlightAware Approximate
07:44PM 44.6169 -68.9594 228° Southwest 130 150 8,000  Level Boston Center
07:45PM 44.5886 -69.0047 229° Southwest 147 169 8,000  Level Boston Center
07:46PM 44.5619 -69.0506 231° Southwest 149 171 8,000  Level Boston Center
07:47PM 44.5342 -69.0953 229° Southwest 149 171 8,000  Level Boston Center
07:48PM 44.5044 -69.1378 226° Southwest 149 171 8,000  Level Boston Center
07:49PM 44.4758 -69.1800 226° Southwest 150 173 8,000  Level Boston Center
07:50PM 44.4417 -69.2319 227° Southwest 149 171 8,000  Level Boston Center
07:51PM 44.4133 -69.2761 228° Southwest 150 173 8,000  Level Boston Center
07:52PM 44.3864 -69.3197 229° Southwest 150 173 8,000  Level Boston Center
07:53PM 44.3581 -69.3625 227° Southwest 150 173 8,000  Level Boston Center
07:54PM 44.3289 -69.4064 227° Southwest 150 173 8,000  Level Boston Center
07:55PM 44.3011 -69.4503 229° Southwest 150 173 8,000  Level Boston Center
07:56PM 44.2728 -69.4928 227° Southwest 150 173 8,000  Level Boston Center
07:57PM 44.2433 -69.5369 227° Southwest 150 173 8,000  Level Boston Center
07:58PM 44.2114 -69.5803 224° Southwest 154 177 8,000  Level Boston Center
07:59PM 44.1808 -69.6225 225° Southwest 154 177 8,000  Level Boston Center
08:00PM 44.1489 -69.6686 226° Southwest 156 180 8,000  Level Boston Center
08:01PM 44.1167 -69.7158 226° Southwest 156 180 8,000  Level Boston Center
08:02PM 44.0878 -69.7603 228° Southwest 155 178 8,000  Level Boston Center
08:03PM 44.0586 -69.8050 228° Southwest 156 180 8,000  Level Boston Center
08:04PM 44.0294 -69.8508 228° Southwest 157 181 8,000  Level Boston Center
08:05PM 44.0008 -69.8958 229° Southwest 156 180 8,000  Level Boston Center
08:06PM 43.9689 -69.9453 228° Southwest 157 181 8,000  Level Boston Center
08:07PM 43.9389 -69.9889 226° Southwest 158 182 8,000  Level Boston Center
08:08PM 43.9081 -70.0336 226° Southwest 158 182 8,000  Level Boston Center
08:09PM 43.8767 -70.0775 225° Southwest 159 183 8,000  Level Boston Center
08:10PM 43.8461 -70.1219 226° Southwest 159 183 8,000  Level Boston Center
08:11PM 43.8133 -70.1703 227° Southwest 158 182 8,000  Level Boston Center
08:12PM 43.7825 -70.2144 226° Southwest 159 183 8,000  Level Boston Center
08:13PM 43.7517 -70.2603 227° Southwest 159 183 8,000  Level Boston Center
08:14PM 43.7211 -70.3053 227° Southwest 160 184 8,000  Level Boston Center
08:15PM 43.6911 -70.3500 227° Southwest 159 183 8,000  Level Boston Center
08:16PM 43.6611 -70.3942 227° Southwest 158 182 8,000  Level Boston Center
08:17PM 43.6281 -70.4425 227° Southwest 159 183 8,000  Level Boston Center
08:18PM 43.5992 -70.4872 228° Southwest 158 182 8,000  Level Boston Center
08:19PM 43.5722 -70.5314 230° Southwest 155 178 8,000  Level Boston Center
08:20PM 43.5431 -70.5758 228° Southwest 155 178 8,000  Level Boston Center
08:21PM 43.5131 -70.6194 227° Southwest 157 181 8,000  Level Boston Center
08:22PM 43.4814 -70.6656 227° Southwest 155 178 8,000  Level Boston Center
08:23PM 43.4503 -70.7069 224° Southwest 154 177 8,000  Level Boston Center
08:24PM 43.4211 -70.7503 227° Southwest 154 177 8,000  Level Boston Center
08:25PM 43.3906 -70.7922 225° Southwest 151 174 8,000  Level Boston Center
08:26PM 43.3611 -70.8347 226° Southwest 154 177 8,000  Level Boston Center
08:27PM 43.3314 -70.8758 225° Southwest 154 177 8,000 -120 Level Boston Center
08:29PM 43.3003 -70.9217 227° Southwest 154 177 7,800 -600 Descending Boston Center
08:30PM 43.2681 -70.9667 225° Southwest 162 186 6,800 -960 Descending Boston Center
08:31PM 43.2375 -71.0125 228° Southwest 163 188 5,900 -960 Descending Boston Center
08:32PM 43.2067 -71.0594 228° Southwest 163 188 4,900 -900 Descending Boston Center
08:33PM 43.1719 -71.1058 224° Southwest 163 188 4,100 -480 Descending Boston Center
08:34PM 43.1442 -71.1497 229° Southwest 157 181 4,000 -300 Descending Boston Center
08:35PM 43.1242 -71.1956 239° Southwest 144 166 3,500 -480 Descending Boston Center
08:36PM 43.1017 -71.2358 233° Southwest 139 160 3,100 -360 Descending Boston Center
08:37PM 43.0733 -71.2703 222° Southwest 129 148 2,800 -240 Descending Boston Center
08:38PM 43.0469 -71.3017 221° Southwest 125 144 2,700 -180 Descending Boston Center
08:39PM 43.0247 -71.3300 223° Southwest 112 129 2,500 -360 Descending Boston Center
08:40PM 43.0047 -71.3564 224° Southwest 105 121 2,000 -600 Descending Boston Center
08:41PM 42.9817 -71.3833 221° Southwest 103 119 1,300 -660 Descending Boston Center
08:42PM 42.9608 -71.4086 222° Southwest 103 119 700 -480 Descending Boston Center
08:43PM 42.9414 -71.4328 222° Southwest 103 119 400 -300 Descending Boston Center
08:45PM 42.9328 -71.4358 222° Southwest  Level Estimated